sensor_id;sensor_type;location;lat;lon;timestamp;temperature;humidity
37002;DHT22;22913;51.910;8.374;2023-04-15T00:02:18;7.80;99.90
37002;DHT22;22913;51.910;8.374;2023-04-15T00:05:05;7.70;99.90
37002;DHT22;22913;51.910;8.374;2023-04-15T00:07:51;7.70;99.90
37002;DHT22;22913;51.910;8.374;2023-04-15T00:10:36;7.70;99.90
37002;DHT22;22913;51.910;8.374;2023-04-15T00:13:22;7.70;99.90
37002;DHT22;22913;51.910;8.374;2023-04-15T00:16:09;7.60;99.90
37002;DHT22;22913;51.910;8.374;2023-04-15T00:18:57;7.60;99.90
37002;DHT22;22913;51.910;8.374;2023-04-15T00:21:42;7.60;99.90
37002;DHT22;22913;51.910;8.374;2023-04-15T00:24:28;7.60;99.90
37002;DHT22;22913;51.910;8.374;2023-04-15T00:27:15;7.50;99.90
37002;DHT22;22913;51.910;8.374;2023-04-15T00:30:01;7.50;99.90
37002;DHT22;22913;51.910;8.374;2023-04-15T00:32:47;7.50;99.90
37002;DHT22;22913;51.910;8.374;2023-04-15T00:35:34;7.40;99.90
37002;DHT22;22913;51.910;8.374;2023-04-15T00:38:20;7.30;99.90
37002;DHT22;22913;51.910;8.374;2023-04-15T00:41:06;7.30;99.90
37002;DHT22;22913;51.910;8.374;2023-04-15T00:43:52;7.30;99.90
37002;DHT22;22913;51.910;8.374;2023-04-15T00:46:38;7.30;99.90
37002;DHT22;22913;51.910;8.374;2023-04-15T00:49:25;7.20;99.90
37002;DHT22;22913;51.910;8.374;2023-04-15T00:52:13;7.20;99.90
37002;DHT22;22913;51.910;8.374;2023-04-15T00:54:59;7.20;99.90
37002;DHT22;22913;51.910;8.374;2023-04-15T00:57:45;7.20;99.90
37002;DHT22;22913;51.910;8.374;2023-04-15T01:00:31;7.10;99.90
37002;DHT22;22913;51.910;8.374;2023-04-15T01:03:17;7.10;99.90
37002;DHT22;22913;51.910;8.374;2023-04-15T01:06:04;7.10;99.90
37002;DHT22;22913;51.910;8.374;2023-04-15T01:08:52;7.00;99.90
37002;DHT22;22913;51.910;8.374;2023-04-15T01:11:38;6.90;99.90
37002;DHT22;22913;51.910;8.374;2023-04-15T01:14:25;6.90;99.90
37002;DHT22;22913;51.910;8.374;2023-04-15T01:17:11;6.90;99.90
37002;DHT22;22913;51.910;8.374;2023-04-15T01:19:57;6.80;99.90
37002;DHT22;22913;51.910;8.374;2023-04-15T01:22:43;6.80;99.90
37002;DHT22;22913;51.910;8.374;2023-04-15T01:25:32;6.80;99.90
37002;DHT22;22913;51.910;8.374;2023-04-15T01:28:18;6.80;99.90
37002;DHT22;22913;51.910;8.374;2023-04-15T01:31:05;6.80;99.90
37002;DHT22;22913;51.910;8.374;2023-04-15T01:33:51;6.80;99.90
37002;DHT22;22913;51.910;8.374;2023-04-15T01:36:37;6.70;99.90
37002;DHT22;22913;51.910;8.374;2023-04-15T01:39:23;6.70;99.90
37002;DHT22;22913;51.910;8.374;2023-04-15T01:42:10;6.70;99.90
37002;DHT22;22913;51.910;8.374;2023-04-15T01:44:56;6.60;99.90
37002;DHT22;22913;51.910;8.374;2023-04-15T01:47:41;6.60;99.90
37002;DHT22;22913;51.910;8.374;2023-04-15T01:50:27;6.60;99.90
37002;DHT22;22913;51.910;8.374;2023-04-15T01:53:13;6.50;99.90
37002;DHT22;22913;51.910;8.374;2023-04-15T01:55:59;6.50;99.90
37002;DHT22;22913;51.910;8.374;2023-04-15T01:58:47;6.40;99.90
37002;DHT22;22913;51.910;8.374;2023-04-15T02:01:33;6.40;99.90
37002;DHT22;22913;51.910;8.374;2023-04-15T02:04:18;6.40;99.90
37002;DHT22;22913;51.910;8.374;2023-04-15T02:07:04;6.40;99.90
37002;DHT22;22913;51.910;8.374;2023-04-15T02:09:50;6.40;99.90
37002;DHT22;22913;51.910;8.374;2023-04-15T02:12:36;6.30;99.90
37002;DHT22;22913;51.910;8.374;2023-04-15T02:15:23;6.30;99.90
37002;DHT22;22913;51.910;8.374;2023-04-15T02:18:09;6.30;99.90
37002;DHT22;22913;51.910;8.374;2023-04-15T02:20:55;6.20;99.90
37002;DHT22;22913;51.910;8.374;2023-04-15T02:23:41;6.30;99.90
37002;DHT22;22913;51.910;8.374;2023-04-15T02:26:30;6.20;99.90
37002;DHT22;22913;51.910;8.374;2023-04-15T02:29:17;6.30;99.90
37002;DHT22;22913;51.910;8.374;2023-04-15T02:32:04;6.20;99.90
37002;DHT22;22913;51.910;8.374;2023-04-15T02:34:50;6.20;99.90
37002;DHT22;22913;51.910;8.374;2023-04-15T02:37:36;6.20;99.90
37002;DHT22;22913;51.910;8.374;2023-04-15T02:40:26;6.20;99.90
37002;DHT22;22913;51.910;8.374;2023-04-15T02:43:12;6.10;99.90
37002;DHT22;22913;51.910;8.374;2023-04-15T02:45:58;6.20;99.90
37002;DHT22;22913;51.910;8.374;2023-04-15T02:48:45;6.20;99.90
37002;DHT22;22913;51.910;8.374;2023-04-15T02:51:31;6.20;99.90
37002;DHT22;22913;51.910;8.374;2023-04-15T02:54:17;6.20;99.90
37002;DHT22;22913;51.910;8.374;2023-04-15T02:57:03;6.20;99.90
37002;DHT22;22913;51.910;8.374;2023-04-15T02:59:50;6.20;99.90
37002;DHT22;22913;51.910;8.374;2023-04-15T03:02:36;6.20;99.90
37002;DHT22;22913;51.910;8.374;2023-04-15T03:05:26;6.20;99.90
37002;DHT22;22913;51.910;8.374;2023-04-15T03:08:12;6.20;99.90
37002;DHT22;22913;51.910;8.374;2023-04-15T03:10:58;6.20;99.90
37002;DHT22;22913;51.910;8.374;2023-04-15T03:13:46;6.20;99.90
37002;DHT22;22913;51.910;8.374;2023-04-15T03:16:32;6.20;99.90
37002;DHT22;22913;51.910;8.374;2023-04-15T03:19:18;6.10;99.90
37002;DHT22;22913;51.910;8.374;2023-04-15T03:22:05;6.20;99.90
37002;DHT22;22913;51.910;8.374;2023-04-15T03:24:50;6.20;99.90
37002;DHT22;22913;51.910;8.374;2023-04-15T03:27:37;6.10;99.90
37002;DHT22;22913;51.910;8.374;2023-04-15T03:30:23;6.10;99.90
37002;DHT22;22913;51.910;8.374;2023-04-15T03:33:09;6.00;99.90
37002;DHT22;22913;51.910;8.374;2023-04-15T03:35:55;6.00;99.90
37002;DHT22;22913;51.910;8.374;2023-04-15T03:38:42;6.00;99.90
37002;DHT22;22913;51.910;8.374;2023-04-15T03:41:28;5.90;99.90
37002;DHT22;22913;51.910;8.374;2023-04-15T03:44:14;5.90;99.90
37002;DHT22;22913;51.910;8.374;2023-04-15T03:47:00;5.90;99.90
37002;DHT22;22913;51.910;8.374;2023-04-15T03:49:45;5.90;99.90
37002;DHT22;22913;51.910;8.374;2023-04-15T03:52:31;5.90;99.90
37002;DHT22;22913;51.910;8.374;2023-04-15T03:55:18;5.90;99.90
37002;DHT22;22913;51.910;8.374;2023-04-15T03:58:04;5.90;99.90
37002;DHT22;22913;51.910;8.374;2023-04-15T04:00:50;5.90;99.90
37002;DHT22;22913;51.910;8.374;2023-04-15T04:03:35;5.80;99.90
37002;DHT22;22913;51.910;8.374;2023-04-15T04:06:21;5.80;99.90
37002;DHT22;22913;51.910;8.374;2023-04-15T04:09:07;5.80;99.90
37002;DHT22;22913;51.910;8.374;2023-04-15T04:11:54;5.80;99.90
37002;DHT22;22913;51.910;8.374;2023-04-15T04:14:41;5.80;99.90
37002;DHT22;22913;51.910;8.374;2023-04-15T04:17:27;5.70;99.90
37002;DHT22;22913;51.910;8.374;2023-04-15T04:20:13;5.70;99.90
37002;DHT22;22913;51.910;8.374;2023-04-15T04:22:58;5.70;99.90
37002;DHT22;22913;51.910;8.374;2023-04-15T04:25:44;5.70;99.90
37002;DHT22;22913;51.910;8.374;2023-04-15T04:28:31;5.70;99.90
37002;DHT22;22913;51.910;8.374;2023-04-15T04:31:16;5.70;99.90
37002;DHT22;22913;51.910;8.374;2023-04-15T04:34:02;5.70;99.90
37002;DHT22;22913;51.910;8.374;2023-04-15T04:36:48;5.70;99.90
37002;DHT22;22913;51.910;8.374;2023-04-15T04:39:33;5.70;99.90
37002;DHT22;22913;51.910;8.374;2023-04-15T04:42:19;5.70;99.90
37002;DHT22;22913;51.910;8.374;2023-04-15T04:45:06;5.80;99.90
37002;DHT22;22913;51.910;8.374;2023-04-15T04:47:52;5.80;99.90
37002;DHT22;22913;51.910;8.374;2023-04-15T04:50:38;5.80;99.90
37002;DHT22;22913;51.910;8.374;2023-04-15T04:53:24;5.90;99.90
37002;DHT22;22913;51.910;8.374;2023-04-15T04:56:09;5.90;99.90
37002;DHT22;22913;51.910;8.374;2023-04-15T04:58:55;6.00;99.90
37002;DHT22;22913;51.910;8.374;2023-04-15T05:01:42;5.90;99.90
37002;DHT22;22913;51.910;8.374;2023-04-15T05:04:27;6.00;99.90
37002;DHT22;22913;51.910;8.374;2023-04-15T05:07:14;6.00;99.90
37002;DHT22;22913;51.910;8.374;2023-04-15T05:10:00;5.90;99.90
37002;DHT22;22913;51.910;8.374;2023-04-15T05:12:45;5.90;99.90
37002;DHT22;22913;51.910;8.374;2023-04-15T05:15:31;5.90;99.90
37002;DHT22;22913;51.910;8.374;2023-04-15T05:18:19;6.00;99.90
37002;DHT22;22913;51.910;8.374;2023-04-15T05:21:04;6.00;99.90
37002;DHT22;22913;51.910;8.374;2023-04-15T05:23:51;6.00;99.90
37002;DHT22;22913;51.910;8.374;2023-04-15T05:26:36;6.00;99.90
37002;DHT22;22913;51.910;8.374;2023-04-15T05:29:22;6.10;99.90
37002;DHT22;22913;51.910;8.374;2023-04-15T05:32:08;6.10;99.90
37002;DHT22;22913;51.910;8.374;2023-04-15T05:34:55;6.20;99.90
37002;DHT22;22913;51.910;8.374;2023-04-15T05:37:41;6.20;99.90
37002;DHT22;22913;51.910;8.374;2023-04-15T05:40:26;6.30;99.90
37002;DHT22;22913;51.910;8.374;2023-04-15T05:43:12;6.40;99.90
37002;DHT22;22913;51.910;8.374;2023-04-15T05:45:57;6.40;99.90
37002;DHT22;22913;51.910;8.374;2023-04-15T05:48:43;6.50;99.90
37002;DHT22;22913;51.910;8.374;2023-04-15T05:51:30;6.60;99.90
37002;DHT22;22913;51.910;8.374;2023-04-15T05:54:15;6.60;99.90
37002;DHT22;22913;51.910;8.374;2023-04-15T05:57:01;6.60;99.90
37002;DHT22;22913;51.910;8.374;2023-04-15T05:59:47;6.70;99.90
37002;DHT22;22913;51.910;8.374;2023-04-15T06:02:34;6.70;99.90
37002;DHT22;22913;51.910;8.374;2023-04-15T06:05:20;6.70;99.90
37002;DHT22;22913;51.910;8.374;2023-04-15T06:08:07;6.80;99.90
37002;DHT22;22913;51.910;8.374;2023-04-15T06:10:53;6.80;99.90
37002;DHT22;22913;51.910;8.374;2023-04-15T06:13:38;6.90;99.90
37002;DHT22;22913;51.910;8.374;2023-04-15T06:16:24;6.90;99.90
37002;DHT22;22913;51.910;8.374;2023-04-15T06:19:10;7.00;99.90
37002;DHT22;22913;51.910;8.374;2023-04-15T06:21:57;7.00;99.90
37002;DHT22;22913;51.910;8.374;2023-04-15T06:24:44;7.10;99.90
37002;DHT22;22913;51.910;8.374;2023-04-15T06:27:29;7.10;99.90
37002;DHT22;22913;51.910;8.374;2023-04-15T06:30:15;7.20;99.90
37002;DHT22;22913;51.910;8.374;2023-04-15T06:33:01;7.20;99.90
37002;DHT22;22913;51.910;8.374;2023-04-15T06:35:48;7.30;99.90
37002;DHT22;22913;51.910;8.374;2023-04-15T06:38:34;7.40;99.90
37002;DHT22;22913;51.910;8.374;2023-04-15T06:41:21;7.50;99.90
37002;DHT22;22913;51.910;8.374;2023-04-15T06:44:07;7.60;99.90
37002;DHT22;22913;51.910;8.374;2023-04-15T06:46:52;7.60;99.90
37002;DHT22;22913;51.910;8.374;2023-04-15T06:49:38;7.70;99.90
37002;DHT22;22913;51.910;8.374;2023-04-15T06:52:24;7.80;99.90
37002;DHT22;22913;51.910;8.374;2023-04-15T06:55:09;7.90;99.90
37002;DHT22;22913;51.910;8.374;2023-04-15T06:57:57;8.10;99.90
37002;DHT22;22913;51.910;8.374;2023-04-15T07:00:42;8.10;99.90
37002;DHT22;22913;51.910;8.374;2023-04-15T07:03:28;8.20;99.90
37002;DHT22;22913;51.910;8.374;2023-04-15T07:06:13;8.20;99.90
37002;DHT22;22913;51.910;8.374;2023-04-15T07:08:59;8.40;99.90
37002;DHT22;22913;51.910;8.374;2023-04-15T07:11:46;8.50;99.90
37002;DHT22;22913;51.910;8.374;2023-04-15T07:14:32;8.60;99.90
37002;DHT22;22913;51.910;8.374;2023-04-15T07:17:18;8.70;99.90
37002;DHT22;22913;51.910;8.374;2023-04-15T07:20:05;8.70;99.90
37002;DHT22;22913;51.910;8.374;2023-04-15T07:22:50;8.70;99.90
37002;DHT22;22913;51.910;8.374;2023-04-15T07:25:36;8.80;99.90
37002;DHT22;22913;51.910;8.374;2023-04-15T07:28:21;8.70;99.90
37002;DHT22;22913;51.910;8.374;2023-04-15T07:31:08;8.80;99.90
37002;DHT22;22913;51.910;8.374;2023-04-15T07:33:54;8.80;99.90
37002;DHT22;22913;51.910;8.374;2023-04-15T07:36:39;8.80;99.90
37002;DHT22;22913;51.910;8.374;2023-04-15T07:39:25;8.90;99.90
37002;DHT22;22913;51.910;8.374;2023-04-15T07:42:11;8.90;99.90
37002;DHT22;22913;51.910;8.374;2023-04-15T07:44:56;8.90;99.90
37002;DHT22;22913;51.910;8.374;2023-04-15T07:47:44;9.00;99.90
37002;DHT22;22913;51.910;8.374;2023-04-15T07:50:30;9.00;99.90
37002;DHT22;22913;51.910;8.374;2023-04-15T07:53:15;9.10;99.90
37002;DHT22;22913;51.910;8.374;2023-04-15T07:56:01;9.10;99.90
37002;DHT22;22913;51.910;8.374;2023-04-15T07:58:47;9.00;99.90
37002;DHT22;22913;51.910;8.374;2023-04-15T08:01:32;9.00;99.90
37002;DHT22;22913;51.910;8.374;2023-04-15T08:04:19;9.00;99.90
37002;DHT22;22913;51.910;8.374;2023-04-15T08:07:05;9.10;99.90
37002;DHT22;22913;51.910;8.374;2023-04-15T08:09:50;9.00;99.90
37002;DHT22;22913;51.910;8.374;2023-04-15T08:12:36;9.00;99.90
37002;DHT22;22913;51.910;8.374;2023-04-15T08:15:22;8.90;99.90
37002;DHT22;22913;51.910;8.374;2023-04-15T08:18:08;8.90;99.90
37002;DHT22;22913;51.910;8.374;2023-04-15T08:20:58;8.90;99.90
37002;DHT22;22913;51.910;8.374;2023-04-15T08:23:45;9.00;99.90
37002;DHT22;22913;51.910;8.374;2023-04-15T08:26:31;8.90;99.90
37002;DHT22;22913;51.910;8.374;2023-04-15T08:29:16;9.00;99.90
37002;DHT22;22913;51.910;8.374;2023-04-15T08:32:02;8.90;99.90
37002;DHT22;22913;51.910;8.374;2023-04-15T08:34:48;8.90;99.90
37002;DHT22;22913;51.910;8.374;2023-04-15T08:37:35;9.00;99.90
37002;DHT22;22913;51.910;8.374;2023-04-15T08:40:22;9.10;99.90
37002;DHT22;22913;51.910;8.374;2023-04-15T08:43:12;9.00;99.90
37002;DHT22;22913;51.910;8.374;2023-04-15T08:45:59;9.20;99.90
37002;DHT22;22913;51.910;8.374;2023-04-15T08:48:46;9.20;99.90
37002;DHT22;22913;51.910;8.374;2023-04-15T08:51:32;9.20;99.90
37002;DHT22;22913;51.910;8.374;2023-04-15T08:54:19;9.20;99.90
37002;DHT22;22913;51.910;8.374;2023-04-15T08:57:05;9.10;99.90
37002;DHT22;22913;51.910;8.374;2023-04-15T08:59:51;9.20;99.90
37002;DHT22;22913;51.910;8.374;2023-04-15T09:02:38;9.10;99.90
37002;DHT22;22913;51.910;8.374;2023-04-15T09:05:23;9.20;99.90
37002;DHT22;22913;51.910;8.374;2023-04-15T09:08:09;9.20;99.90
37002;DHT22;22913;51.910;8.374;2023-04-15T09:10:56;9.20;99.90
37002;DHT22;22913;51.910;8.374;2023-04-15T09:13:41;9.20;99.90
37002;DHT22;22913;51.910;8.374;2023-04-15T09:16:27;9.30;99.90
37002;DHT22;22913;51.910;8.374;2023-04-15T09:19:20;9.30;99.90
37002;DHT22;22913;51.910;8.374;2023-04-15T09:22:06;9.50;99.90
37002;DHT22;22913;51.910;8.374;2023-04-15T09:24:51;9.50;99.90
37002;DHT22;22913;51.910;8.374;2023-04-15T09:27:47;9.50;99.90
37002;DHT22;22913;51.910;8.374;2023-04-15T09:30:33;9.50;99.90
37002;DHT22;22913;51.910;8.374;2023-04-15T09:33:18;9.50;99.90
37002;DHT22;22913;51.910;8.374;2023-04-15T09:36:04;9.50;99.90
37002;DHT22;22913;51.910;8.374;2023-04-15T09:38:55;9.40;99.90
37002;DHT22;22913;51.910;8.374;2023-04-15T09:41:41;9.40;99.90
37002;DHT22;22913;51.910;8.374;2023-04-15T09:44:28;9.50;99.90
37002;DHT22;22913;51.910;8.374;2023-04-15T09:47:27;9.60;99.90
37002;DHT22;22913;51.910;8.374;2023-04-15T09:50:13;9.80;99.90
37002;DHT22;22913;51.910;8.374;2023-04-15T09:52:58;9.90;99.90
37002;DHT22;22913;51.910;8.374;2023-04-15T09:55:49;9.90;99.90
37002;DHT22;22913;51.910;8.374;2023-04-15T09:58:35;9.90;99.90
37002;DHT22;22913;51.910;8.374;2023-04-15T10:01:23;10.00;99.90
37002;DHT22;22913;51.910;8.374;2023-04-15T10:04:09;9.90;99.90
37002;DHT22;22913;51.910;8.374;2023-04-15T10:06:55;10.00;99.90
37002;DHT22;22913;51.910;8.374;2023-04-15T10:09:42;10.00;99.90
37002;DHT22;22913;51.910;8.374;2023-04-15T10:12:29;9.90;99.90
37002;DHT22;22913;51.910;8.374;2023-04-15T10:15:16;9.80;99.90
37002;DHT22;22913;51.910;8.374;2023-04-15T10:18:04;9.80;99.90
37002;DHT22;22913;51.910;8.374;2023-04-15T10:20:52;9.90;99.90
37002;DHT22;22913;51.910;8.374;2023-04-15T10:23:38;9.90;99.90
37002;DHT22;22913;51.910;8.374;2023-04-15T10:26:24;9.90;99.90
37002;DHT22;22913;51.910;8.374;2023-04-15T10:29:10;10.00;99.90
37002;DHT22;22913;51.910;8.374;2023-04-15T10:31:58;10.00;99.90
37002;DHT22;22913;51.910;8.374;2023-04-15T10:34:45;9.90;99.90
37002;DHT22;22913;51.910;8.374;2023-04-15T10:37:33;10.00;99.90
37002;DHT22;22913;51.910;8.374;2023-04-15T10:40:27;9.90;99.90
37002;DHT22;22913;51.910;8.374;2023-04-15T10:43:24;9.90;99.90
37002;DHT22;22913;51.910;8.374;2023-04-15T10:46:10;9.90;99.90
37002;DHT22;22913;51.910;8.374;2023-04-15T10:48:56;10.00;99.90
37002;DHT22;22913;51.910;8.374;2023-04-15T10:51:44;10.00;99.90
37002;DHT22;22913;51.910;8.374;2023-04-15T10:54:31;10.00;99.90
37002;DHT22;22913;51.910;8.374;2023-04-15T10:57:21;10.00;99.90
37002;DHT22;22913;51.910;8.374;2023-04-15T11:00:12;9.90;99.90
37002;DHT22;22913;51.910;8.374;2023-04-15T11:02:58;9.90;99.90
37002;DHT22;22913;51.910;8.374;2023-04-15T11:05:50;9.90;99.90
37002;DHT22;22913;51.910;8.374;2023-04-15T11:08:58;9.80;99.90
37002;DHT22;22913;51.910;8.374;2023-04-15T11:12:05;9.70;99.90
37002;DHT22;22913;51.910;8.374;2023-04-15T11:14:51;9.70;99.90
37002;DHT22;22913;51.910;8.374;2023-04-15T11:17:37;9.70;99.90
37002;DHT22;22913;51.910;8.374;2023-04-15T11:20:22;9.60;99.90
37002;DHT22;22913;51.910;8.374;2023-04-15T11:23:08;9.60;99.90
37002;DHT22;22913;51.910;8.374;2023-04-15T11:25:55;9.60;99.90
37002;DHT22;22913;51.910;8.374;2023-04-15T11:28:42;9.60;99.90
37002;DHT22;22913;51.910;8.374;2023-04-15T11:31:28;9.70;99.90
37002;DHT22;22913;51.910;8.374;2023-04-15T11:34:22;9.60;99.90
37002;DHT22;22913;51.910;8.374;2023-04-15T11:37:08;9.60;99.90
37002;DHT22;22913;51.910;8.374;2023-04-15T11:39:54;9.70;99.90
37002;DHT22;22913;51.910;8.374;2023-04-15T11:42:42;9.70;99.90
37002;DHT22;22913;51.910;8.374;2023-04-15T11:45:27;9.70;99.90
37002;DHT22;22913;51.910;8.374;2023-04-15T11:48:13;9.70;99.90
37002;DHT22;22913;51.910;8.374;2023-04-15T11:51:00;9.70;99.90
37002;DHT22;22913;51.910;8.374;2023-04-15T11:53:47;9.70;99.90
37002;DHT22;22913;51.910;8.374;2023-04-15T11:56:33;9.70;99.90
37002;DHT22;22913;51.910;8.374;2023-04-15T11:59:20;9.70;99.90
37002;DHT22;22913;51.910;8.374;2023-04-15T12:02:10;9.60;99.90
37002;DHT22;22913;51.910;8.374;2023-04-15T12:05:02;9.60;99.90
37002;DHT22;22913;51.910;8.374;2023-04-15T12:07:57;9.50;99.90
37002;DHT22;22913;51.910;8.374;2023-04-15T12:10:43;9.60;99.90
37002;DHT22;22913;51.910;8.374;2023-04-15T12:13:28;9.60;99.90
37002;DHT22;22913;51.910;8.374;2023-04-15T12:16:18;9.60;99.90
37002;DHT22;22913;51.910;8.374;2023-04-15T12:19:05;9.60;99.90
37002;DHT22;22913;51.910;8.374;2023-04-15T12:21:54;9.60;99.90
37002;DHT22;22913;51.910;8.374;2023-04-15T12:24:43;9.70;99.90
37002;DHT22;22913;51.910;8.374;2023-04-15T12:27:31;9.70;99.90
37002;DHT22;22913;51.910;8.374;2023-04-15T12:30:16;9.60;99.90
37002;DHT22;22913;51.910;8.374;2023-04-15T12:33:03;9.60;99.90
37002;DHT22;22913;51.910;8.374;2023-04-15T12:35:49;9.70;99.90
37002;DHT22;22913;51.910;8.374;2023-04-15T12:38:35;9.70;99.90
37002;DHT22;22913;51.910;8.374;2023-04-15T12:41:21;9.70;99.90
37002;DHT22;22913;51.910;8.374;2023-04-15T12:44:07;9.60;99.90
37002;DHT22;22913;51.910;8.374;2023-04-15T12:46:53;9.70;99.90
37002;DHT22;22913;51.910;8.374;2023-04-15T12:49:41;9.70;99.90
37002;DHT22;22913;51.910;8.374;2023-04-15T12:52:26;9.60;99.90
37002;DHT22;22913;51.910;8.374;2023-04-15T12:55:12;9.60;99.90
37002;DHT22;22913;51.910;8.374;2023-04-15T12:57:57;9.60;99.90
37002;DHT22;22913;51.910;8.374;2023-04-15T13:00:43;9.60;99.90
37002;DHT22;22913;51.910;8.374;2023-04-15T13:03:29;9.60;99.90
37002;DHT22;22913;51.910;8.374;2023-04-15T13:06:16;9.60;99.90
37002;DHT22;22913;51.910;8.374;2023-04-15T13:09:01;9.70;99.90
37002;DHT22;22913;51.910;8.374;2023-04-15T13:11:48;9.70;99.90
37002;DHT22;22913;51.910;8.374;2023-04-15T13:14:35;9.70;99.90
37002;DHT22;22913;51.910;8.374;2023-04-15T13:17:21;9.80;99.90
37002;DHT22;22913;51.910;8.374;2023-04-15T13:20:07;9.80;99.90
37002;DHT22;22913;51.910;8.374;2023-04-15T13:22:55;9.70;99.90
37002;DHT22;22913;51.910;8.374;2023-04-15T13:25:41;9.70;99.90
37002;DHT22;22913;51.910;8.374;2023-04-15T13:28:26;9.70;99.90
37002;DHT22;22913;51.910;8.374;2023-04-15T13:31:12;9.60;99.90
37002;DHT22;22913;51.910;8.374;2023-04-15T13:33:57;9.60;99.90
37002;DHT22;22913;51.910;8.374;2023-04-15T13:36:43;9.60;99.90
37002;DHT22;22913;51.910;8.374;2023-04-15T13:39:30;9.60;99.90
37002;DHT22;22913;51.910;8.374;2023-04-15T13:42:16;9.70;99.90
37002;DHT22;22913;51.910;8.374;2023-04-15T13:45:02;9.70;99.90
37002;DHT22;22913;51.910;8.374;2023-04-15T13:47:48;9.70;99.90
37002;DHT22;22913;51.910;8.374;2023-04-15T13:50:33;9.60;99.90
37002;DHT22;22913;51.910;8.374;2023-04-15T13:53:19;9.60;99.90
37002;DHT22;22913;51.910;8.374;2023-04-15T13:56:06;9.50;99.90
37002;DHT22;22913;51.910;8.374;2023-04-15T13:58:52;9.50;99.90
37002;DHT22;22913;51.910;8.374;2023-04-15T14:01:37;9.60;99.90
37002;DHT22;22913;51.910;8.374;2023-04-15T14:04:24;9.60;99.90
37002;DHT22;22913;51.910;8.374;2023-04-15T14:07:10;9.60;99.90
37002;DHT22;22913;51.910;8.374;2023-04-15T14:09:55;9.60;99.90
37002;DHT22;22913;51.910;8.374;2023-04-15T14:12:42;9.70;99.90
37002;DHT22;22913;51.910;8.374;2023-04-15T14:15:28;9.70;99.90
37002;DHT22;22913;51.910;8.374;2023-04-15T14:18:13;9.70;99.90
37002;DHT22;22913;51.910;8.374;2023-04-15T14:20:59;9.60;99.90
37002;DHT22;22913;51.910;8.374;2023-04-15T14:23:45;9.50;99.90
37002;DHT22;22913;51.910;8.374;2023-04-15T14:26:30;9.60;99.90
37002;DHT22;22913;51.910;8.374;2023-04-15T14:29:17;9.50;99.90
37002;DHT22;22913;51.910;8.374;2023-04-15T14:32:03;9.60;99.90
37002;DHT22;22913;51.910;8.374;2023-04-15T14:34:50;9.60;99.90
37002;DHT22;22913;51.910;8.374;2023-04-15T14:37:37;9.50;99.90
37002;DHT22;22913;51.910;8.374;2023-04-15T14:40:22;9.60;99.90
37002;DHT22;22913;51.910;8.374;2023-04-15T14:43:07;9.60;99.90
37002;DHT22;22913;51.910;8.374;2023-04-15T14:45:55;9.60;99.90
37002;DHT22;22913;51.910;8.374;2023-04-15T14:48:40;9.60;99.90
37002;DHT22;22913;51.910;8.374;2023-04-15T14:51:26;9.60;99.90
37002;DHT22;22913;51.910;8.374;2023-04-15T14:54:12;9.60;99.90
37002;DHT22;22913;51.910;8.374;2023-04-15T14:56:57;9.50;99.90
37002;DHT22;22913;51.910;8.374;2023-04-15T14:59:43;9.60;99.90
37002;DHT22;22913;51.910;8.374;2023-04-15T15:02:30;9.60;99.90
37002;DHT22;22913;51.910;8.374;2023-04-15T15:05:15;9.60;99.90
37002;DHT22;22913;51.910;8.374;2023-04-15T15:08:01;9.60;99.90
37002;DHT22;22913;51.910;8.374;2023-04-15T15:10:47;9.60;99.90
37002;DHT22;22913;51.910;8.374;2023-04-15T15:13:33;9.60;99.90
37002;DHT22;22913;51.910;8.374;2023-04-15T15:16:19;9.60;99.90
37002;DHT22;22913;51.910;8.374;2023-04-15T15:19:06;9.60;99.90
37002;DHT22;22913;51.910;8.374;2023-04-15T15:21:51;9.50;99.90
37002;DHT22;22913;51.910;8.374;2023-04-15T15:24:37;9.50;99.90
37002;DHT22;22913;51.910;8.374;2023-04-15T15:27:22;9.50;99.90
37002;DHT22;22913;51.910;8.374;2023-04-15T15:30:09;9.60;99.90
37002;DHT22;22913;51.910;8.374;2023-04-15T15:32:55;9.60;99.90
37002;DHT22;22913;51.910;8.374;2023-04-15T15:35:43;9.60;99.90
37002;DHT22;22913;51.910;8.374;2023-04-15T15:38:28;9.60;99.90
37002;DHT22;22913;51.910;8.374;2023-04-15T15:41:14;9.60;99.90
37002;DHT22;22913;51.910;8.374;2023-04-15T15:43:59;9.60;99.90
37002;DHT22;22913;51.910;8.374;2023-04-15T15:46:45;9.60;99.90
37002;DHT22;22913;51.910;8.374;2023-04-15T15:49:31;9.60;99.90
37002;DHT22;22913;51.910;8.374;2023-04-15T15:52:18;9.60;99.90
37002;DHT22;22913;51.910;8.374;2023-04-15T15:55:04;9.60;99.90
37002;DHT22;22913;51.910;8.374;2023-04-15T15:57:49;9.70;99.90
37002;DHT22;22913;51.910;8.374;2023-04-15T16:00:35;9.60;99.90
37002;DHT22;22913;51.910;8.374;2023-04-15T16:03:21;9.60;99.90
37002;DHT22;22913;51.910;8.374;2023-04-15T16:06:07;9.60;99.90
37002;DHT22;22913;51.910;8.374;2023-04-15T16:08:54;9.60;99.90
37002;DHT22;22913;51.910;8.374;2023-04-15T16:11:39;9.60;99.90
37002;DHT22;22913;51.910;8.374;2023-04-15T16:14:25;9.50;99.90
37002;DHT22;22913;51.910;8.374;2023-04-15T16:17:10;9.50;99.90
37002;DHT22;22913;51.910;8.374;2023-04-15T16:19:56;9.50;99.90
37002;DHT22;22913;51.910;8.374;2023-04-15T16:22:42;9.60;99.90
37002;DHT22;22913;51.910;8.374;2023-04-15T16:25:29;9.60;99.90
37002;DHT22;22913;51.910;8.374;2023-04-15T16:28:15;9.60;99.90
37002;DHT22;22913;51.910;8.374;2023-04-15T16:31:00;9.60;99.90
37002;DHT22;22913;51.910;8.374;2023-04-15T16:33:46;9.70;99.90
37002;DHT22;22913;51.910;8.374;2023-04-15T16:36:33;9.60;99.90
37002;DHT22;22913;51.910;8.374;2023-04-15T16:39:18;9.60;99.90
37002;DHT22;22913;51.910;8.374;2023-04-15T16:42:08;9.70;99.90
37002;DHT22;22913;51.910;8.374;2023-04-15T16:44:54;9.70;99.90
37002;DHT22;22913;51.910;8.374;2023-04-15T16:47:39;9.70;99.90
37002;DHT22;22913;51.910;8.374;2023-04-15T16:50:25;9.80;99.90
37002;DHT22;22913;51.910;8.374;2023-04-15T16:53:13;9.80;99.90
37002;DHT22;22913;51.910;8.374;2023-04-15T16:55:58;9.70;99.90
37002;DHT22;22913;51.910;8.374;2023-04-15T16:58:46;9.80;99.90
37002;DHT22;22913;51.910;8.374;2023-04-15T17:01:31;9.80;99.90
37002;DHT22;22913;51.910;8.374;2023-04-15T17:04:17;9.80;99.90
37002;DHT22;22913;51.910;8.374;2023-04-15T17:07:03;9.70;99.90
37002;DHT22;22913;51.910;8.374;2023-04-15T17:09:49;9.70;99.90
37002;DHT22;22913;51.910;8.374;2023-04-15T17:12:35;9.70;99.90
37002;DHT22;22913;51.910;8.374;2023-04-15T17:15:22;9.70;99.90
37002;DHT22;22913;51.910;8.374;2023-04-15T17:18:08;9.70;99.90
37002;DHT22;22913;51.910;8.374;2023-04-15T17:20:54;9.70;99.90
37002;DHT22;22913;51.910;8.374;2023-04-15T17:23:39;9.60;99.90
37002;DHT22;22913;51.910;8.374;2023-04-15T17:26:25;9.60;99.90
37002;DHT22;22913;51.910;8.374;2023-04-15T17:29:10;9.60;99.90
37002;DHT22;22913;51.910;8.374;2023-04-15T17:31:57;9.60;99.90
37002;DHT22;22913;51.910;8.374;2023-04-15T17:34:44;9.60;99.90
37002;DHT22;22913;51.910;8.374;2023-04-15T17:37:30;9.70;99.90
37002;DHT22;22913;51.910;8.374;2023-04-15T17:40:15;9.70;99.90
37002;DHT22;22913;51.910;8.374;2023-04-15T17:43:01;9.70;99.90
37002;DHT22;22913;51.910;8.374;2023-04-15T17:45:46;9.60;99.90
37002;DHT22;22913;51.910;8.374;2023-04-15T17:48:33;9.60;99.90